sensor_id;sensor_type;location;lat;lon;timestamp;P1;durP1;ratioP1;P2;durP2;ratioP2
35126;SDS011;21300;52.006;5.798;2023-04-27T00:00:25;5.35;;;3.05;;
35126;SDS011;21300;52.006;5.798;2023-04-27T00:02:51;4.10;;;2.92;;
35126;SDS011;21300;52.006;5.798;2023-04-27T00:05:17;5.00;;;2.90;;
35126;SDS011;21300;52.006;5.798;2023-04-27T00:07:44;3.83;;;2.80;;
35126;SDS011;21300;52.006;5.798;2023-04-27T00:10:09;5.38;;;3.10;;
35126;SDS011;21300;52.006;5.798;2023-04-27T00:12:36;5.50;;;3.22;;
35126;SDS011;21300;52.006;5.798;2023-04-27T00:15:02;6.05;;;3.33;;
35126;SDS011;21300;52.006;5.798;2023-04-27T00:17:27;6.10;;;3.40;;
35126;SDS011;21300;52.006;5.798;2023-04-27T00:19:53;5.78;;;3.03;;
35126;SDS011;21300;52.006;5.798;2023-04-27T00:22:19;8.23;;;2.92;;
35126;SDS011;21300;52.006;5.798;2023-04-27T00:24:44;5.57;;;3.17;;
35126;SDS011;21300;52.006;5.798;2023-04-27T00:27:10;4.50;;;3.28;;
35126;SDS011;21300;52.006;5.798;2023-04-27T00:29:37;7.22;;;3.55;;
35126;SDS011;21300;52.006;5.798;2023-04-27T00:32:06;3.92;;;3.00;;
35126;SDS011;21300;52.006;5.798;2023-04-27T00:34:35;5.45;;;3.45;;
35126;SDS011;21300;52.006;5.798;2023-04-27T00:37:02;5.50;;;3.30;;
35126;SDS011;21300;52.006;5.798;2023-04-27T00:39:28;4.22;;;2.90;;
35126;SDS011;21300;52.006;5.798;2023-04-27T00:41:54;4.68;;;2.83;;
35126;SDS011;21300;52.006;5.798;2023-04-27T00:44:26;4.72;;;3.20;;
35126;SDS011;21300;52.006;5.798;2023-04-27T00:46:52;5.60;;;2.92;;
35126;SDS011;21300;52.006;5.798;2023-04-27T00:49:21;4.15;;;3.25;;
35126;SDS011;21300;52.006;5.798;2023-04-27T00:51:47;8.45;;;3.05;;
35126;SDS011;21300;52.006;5.798;2023-04-27T00:54:17;5.72;;;3.10;;
35126;SDS011;21300;52.006;5.798;2023-04-27T00:56:44;6.03;;;3.40;;
35126;SDS011;21300;52.006;5.798;2023-04-27T00:59:13;4.85;;;3.03;;
35126;SDS011;21300;52.006;5.798;2023-04-27T01:01:38;4.03;;;2.85;;
35126;SDS011;21300;52.006;5.798;2023-04-27T01:04:05;5.07;;;3.10;;
35126;SDS011;21300;52.006;5.798;2023-04-27T01:06:30;5.22;;;2.65;;
35126;SDS011;21300;52.006;5.798;2023-04-27T01:08:56;6.07;;;2.95;;
35126;SDS011;21300;52.006;5.798;2023-04-27T01:11:22;4.93;;;2.78;;
35126;SDS011;21300;52.006;5.798;2023-04-27T01:13:47;4.22;;;3.00;;
35126;SDS011;21300;52.006;5.798;2023-04-27T01:16:13;4.97;;;3.20;;
35126;SDS011;21300;52.006;5.798;2023-04-27T01:18:41;4.55;;;2.70;;
35126;SDS011;21300;52.006;5.798;2023-04-27T01:21:06;4.75;;;2.92;;
35126;SDS011;21300;52.006;5.798;2023-04-27T01:23:32;4.78;;;3.13;;
35126;SDS011;21300;52.006;5.798;2023-04-27T01:25:57;4.55;;;2.95;;
35126;SDS011;21300;52.006;5.798;2023-04-27T01:28:23;6.65;;;3.08;;
35126;SDS011;21300;52.006;5.798;2023-04-27T01:30:49;6.68;;;2.90;;
35126;SDS011;21300;52.006;5.798;2023-04-27T01:33:14;7.25;;;2.80;;
35126;SDS011;21300;52.006;5.798;2023-04-27T01:35:40;6.53;;;3.08;;
35126;SDS011;21300;52.006;5.798;2023-04-27T01:38:05;5.65;;;2.88;;
35126;SDS011;21300;52.006;5.798;2023-04-27T01:40:31;6.80;;;2.88;;
35126;SDS011;21300;52.006;5.798;2023-04-27T01:42:57;5.22;;;2.90;;
35126;SDS011;21300;52.006;5.798;2023-04-27T01:45:22;4.22;;;3.13;;
35126;SDS011;21300;52.006;5.798;2023-04-27T01:47:51;5.50;;;2.80;;
35126;SDS011;21300;52.006;5.798;2023-04-27T01:50:17;5.47;;;3.33;;
35126;SDS011;21300;52.006;5.798;2023-04-27T01:52:43;6.75;;;3.13;;
35126;SDS011;21300;52.006;5.798;2023-04-27T01:55:08;5.22;;;2.88;;
35126;SDS011;21300;52.006;5.798;2023-04-27T01:57:35;7.97;;;3.20;;
35126;SDS011;21300;52.006;5.798;2023-04-27T02:00:00;4.85;;;2.95;;
35126;SDS011;21300;52.006;5.798;2023-04-27T02:02:26;4.97;;;2.97;;
35126;SDS011;21300;52.006;5.798;2023-04-27T02:04:52;5.40;;;3.30;;
35126;SDS011;21300;52.006;5.798;2023-04-27T02:07:17;8.63;;;3.25;;
35126;SDS011;21300;52.006;5.798;2023-04-27T02:09:43;5.13;;;2.97;;
35126;SDS011;21300;52.006;5.798;2023-04-27T02:12:08;5.20;;;2.88;;
35126;SDS011;21300;52.006;5.798;2023-04-27T02:14:34;5.25;;;3.08;;
35126;SDS011;21300;52.006;5.798;2023-04-27T02:17:00;9.63;;;3.30;;
35126;SDS011;21300;52.006;5.798;2023-04-27T02:19:25;5.50;;;3.30;;
35126;SDS011;21300;52.006;5.798;2023-04-27T02:21:51;6.05;;;3.53;;
35126;SDS011;21300;52.006;5.798;2023-04-27T02:24:16;4.65;;;2.95;;
35126;SDS011;21300;52.006;5.798;2023-04-27T02:26:42;8.45;;;3.17;;
35126;SDS011;21300;52.006;5.798;2023-04-27T02:29:08;6.45;;;3.80;;
35126;SDS011;21300;52.006;5.798;2023-04-27T02:31:34;4.65;;;3.28;;
35126;SDS011;21300;52.006;5.798;2023-04-27T02:33:59;5.88;;;3.20;;
35126;SDS011;21300;52.006;5.798;2023-04-27T02:36:25;5.68;;;3.03;;
35126;SDS011;21300;52.006;5.798;2023-04-27T02:38:51;5.13;;;3.15;;
35126;SDS011;21300;52.006;5.798;2023-04-27T02:41:17;6.80;;;3.38;;
35126;SDS011;21300;52.006;5.798;2023-04-27T02:43:43;5.70;;;3.40;;
35126;SDS011;21300;52.006;5.798;2023-04-27T02:46:08;6.05;;;3.60;;
35126;SDS011;21300;52.006;5.798;2023-04-27T02:48:34;6.20;;;3.50;;
35126;SDS011;21300;52.006;5.798;2023-04-27T02:51:01;4.65;;;3.20;;
35126;SDS011;21300;52.006;5.798;2023-04-27T02:53:28;5.70;;;3.55;;
35126;SDS011;21300;52.006;5.798;2023-04-27T02:55:54;4.93;;;3.60;;
35126;SDS011;21300;52.006;5.798;2023-04-27T02:58:19;6.03;;;3.25;;
35126;SDS011;21300;52.006;5.798;2023-04-27T03:00:45;4.53;;;3.38;;
35126;SDS011;21300;52.006;5.798;2023-04-27T03:03:10;6.30;;;3.13;;
35126;SDS011;21300;52.006;5.798;2023-04-27T03:05:36;6.10;;;3.00;;
35126;SDS011;21300;52.006;5.798;2023-04-27T03:08:02;5.00;;;3.00;;
35126;SDS011;21300;52.006;5.798;2023-04-27T03:10:28;7.88;;;3.00;;
35126;SDS011;21300;52.006;5.798;2023-04-27T03:12:53;6.40;;;3.20;;
35126;SDS011;21300;52.006;5.798;2023-04-27T03:15:19;4.88;;;3.42;;
35126;SDS011;21300;52.006;5.798;2023-04-27T03:17:45;6.10;;;3.10;;
35126;SDS011;21300;52.006;5.798;2023-04-27T03:20:11;6.05;;;3.30;;
35126;SDS011;21300;52.006;5.798;2023-04-27T03:22:36;6.03;;;3.10;;
35126;SDS011;21300;52.006;5.798;2023-04-27T03:25:02;5.85;;;2.70;;
35126;SDS011;21300;52.006;5.798;2023-04-27T03:27:28;5.97;;;2.58;;
35126;SDS011;21300;52.006;5.798;2023-04-27T03:29:54;7.63;;;4.40;;
35126;SDS011;21300;52.006;5.798;2023-04-27T03:32:20;4.30;;;2.85;;
35126;SDS011;21300;52.006;5.798;2023-04-27T03:34:45;5.43;;;3.00;;
35126;SDS011;21300;52.006;5.798;2023-04-27T03:37:11;3.95;;;2.80;;
35126;SDS011;21300;52.006;5.798;2023-04-27T03:39:37;5.53;;;2.80;;
35126;SDS011;21300;52.006;5.798;2023-04-27T03:42:03;4.82;;;2.80;;
35126;SDS011;21300;52.006;5.798;2023-04-27T03:44:29;5.50;;;2.83;;
35126;SDS011;21300;52.006;5.798;2023-04-27T03:46:58;4.70;;;3.05;;
35126;SDS011;21300;52.006;5.798;2023-04-27T03:49:24;5.80;;;3.20;;
35126;SDS011;21300;52.006;5.798;2023-04-27T03:51:50;4.45;;;3.10;;
35126;SDS011;21300;52.006;5.798;2023-04-27T03:54:16;5.78;;;3.30;;
35126;SDS011;21300;52.006;5.798;2023-04-27T03:56:41;5.13;;;3.10;;
35126;SDS011;21300;52.006;5.798;2023-04-27T03:59:08;6.10;;;2.85;;
35126;SDS011;21300;52.006;5.798;2023-04-27T04:01:34;8.07;;;3.28;;
35126;SDS011;21300;52.006;5.798;2023-04-27T04:04:00;6.65;;;3.10;;
35126;SDS011;21300;52.006;5.798;2023-04-27T04:06:26;4.68;;;3.05;;
35126;SDS011;21300;52.006;5.798;2023-04-27T04:08:52;5.90;;;2.85;;
35126;SDS011;21300;52.006;5.798;2023-04-27T04:11:18;5.68;;;3.42;;
35126;SDS011;21300;52.006;5.798;2023-04-27T04:13:43;5.55;;;3.05;;
35126;SDS011;21300;52.006;5.798;2023-04-27T04:16:09;9.30;;;3.45;;
35126;SDS011;21300;52.006;5.798;2023-04-27T04:18:35;7.82;;;3.10;;
35126;SDS011;21300;52.006;5.798;2023-04-27T04:21:01;9.05;;;3.10;;
35126;SDS011;21300;52.006;5.798;2023-04-27T04:23:27;5.82;;;3.28;;
35126;SDS011;21300;52.006;5.798;2023-04-27T04:25:53;5.60;;;3.25;;
35126;SDS011;21300;52.006;5.798;2023-04-27T04:28:22;5.63;;;3.50;;
35126;SDS011;21300;52.006;5.798;2023-04-27T04:30:48;7.15;;;3.30;;
35126;SDS011;21300;52.006;5.798;2023-04-27T04:33:15;5.95;;;3.40;;
35126;SDS011;21300;52.006;5.798;2023-04-27T04:35:41;5.88;;;3.20;;
35126;SDS011;21300;52.006;5.798;2023-04-27T04:38:07;6.47;;;3.50;;
35126;SDS011;21300;52.006;5.798;2023-04-27T04:40:33;5.10;;;3.50;;
35126;SDS011;21300;52.006;5.798;2023-04-27T04:42:59;7.78;;;3.10;;
35126;SDS011;21300;52.006;5.798;2023-04-27T04:45:24;4.63;;;3.05;;
35126;SDS011;21300;52.006;5.798;2023-04-27T04:47:50;4.38;;;2.92;;
35126;SDS011;21300;52.006;5.798;2023-04-27T04:50:18;7.05;;;3.20;;
35126;SDS011;21300;52.006;5.798;2023-04-27T04:52:44;5.22;;;3.05;;
35126;SDS011;21300;52.006;5.798;2023-04-27T04:55:10;7.97;;;3.50;;
35126;SDS011;21300;52.006;5.798;2023-04-27T04:57:35;4.75;;;3.05;;
35126;SDS011;21300;52.006;5.798;2023-04-27T05:00:01;6.47;;;3.35;;
35126;SDS011;21300;52.006;5.798;2023-04-27T05:02:27;6.10;;;3.60;;
35126;SDS011;21300;52.006;5.798;2023-04-27T05:04:53;6.40;;;3.45;;
35126;SDS011;21300;52.006;5.798;2023-04-27T05:07:20;6.43;;;3.30;;
35126;SDS011;21300;52.006;5.798;2023-04-27T05:09:46;7.28;;;3.08;;
35126;SDS011;21300;52.006;5.798;2023-04-27T05:12:12;7.90;;;3.58;;
35126;SDS011;21300;52.006;5.798;2023-04-27T05:14:37;5.95;;;3.80;;
35126;SDS011;21300;52.006;5.798;2023-04-27T05:17:03;5.97;;;3.42;;
35126;SDS011;21300;52.006;5.798;2023-04-27T05:19:28;5.93;;;3.25;;
35126;SDS011;21300;52.006;5.798;2023-04-27T05:21:55;6.53;;;3.83;;
35126;SDS011;21300;52.006;5.798;2023-04-27T05:24:21;6.40;;;3.63;;
35126;SDS011;21300;52.006;5.798;2023-04-27T05:26:47;4.88;;;3.50;;
35126;SDS011;21300;52.006;5.798;2023-04-27T05:29:12;6.10;;;3.60;;
35126;SDS011;21300;52.006;5.798;2023-04-27T05:31:38;5.60;;;3.58;;
35126;SDS011;21300;52.006;5.798;2023-04-27T05:34:03;5.43;;;3.40;;
35126;SDS011;21300;52.006;5.798;2023-04-27T05:36:29;5.18;;;3.60;;
35126;SDS011;21300;52.006;5.798;2023-04-27T05:38:55;5.95;;;3.83;;
35126;SDS011;21300;52.006;5.798;2023-04-27T05:41:20;5.60;;;3.83;;
35126;SDS011;21300;52.006;5.798;2023-04-27T05:43:47;6.97;;;3.72;;
35126;SDS011;21300;52.006;5.798;2023-04-27T05:46:13;6.22;;;3.95;;
35126;SDS011;21300;52.006;5.798;2023-04-27T05:48:39;8.73;;;3.85;;
35126;SDS011;21300;52.006;5.798;2023-04-27T05:51:05;6.85;;;4.55;;
35126;SDS011;21300;52.006;5.798;2023-04-27T05:53:31;8.40;;;3.80;;
35126;SDS011;21300;52.006;5.798;2023-04-27T05:55:57;6.20;;;3.88;;
35126;SDS011;21300;52.006;5.798;2023-04-27T05:58:25;5.90;;;3.88;;
35126;SDS011;21300;52.006;5.798;2023-04-27T06:00:50;7.78;;;4.28;;
35126;SDS011;21300;52.006;5.798;2023-04-27T06:03:17;6.88;;;3.88;;
35126;SDS011;21300;52.006;5.798;2023-04-27T06:05:43;7.40;;;4.28;;
35126;SDS011;21300;52.006;5.798;2023-04-27T06:08:09;5.20;;;4.22;;
35126;SDS011;21300;52.006;5.798;2023-04-27T06:10:36;8.30;;;4.38;;
35126;SDS011;21300;52.006;5.798;2023-04-27T06:13:02;7.15;;;4.40;;
35126;SDS011;21300;52.006;5.798;2023-04-27T06:15:28;6.72;;;4.50;;
35126;SDS011;21300;52.006;5.798;2023-04-27T06:17:53;7.43;;;4.68;;
35126;SDS011;21300;52.006;5.798;2023-04-27T06:20:19;9.07;;;4.60;;
35126;SDS011;21300;52.006;5.798;2023-04-27T06:22:44;10.20;;;5.18;;
35126;SDS011;21300;52.006;5.798;2023-04-27T06:25:10;7.85;;;5.60;;
35126;SDS011;21300;52.006;5.798;2023-04-27T06:27:36;9.82;;;5.50;;
35126;SDS011;21300;52.006;5.798;2023-04-27T06:30:02;8.35;;;5.60;;
35126;SDS011;21300;52.006;5.798;2023-04-27T06:32:29;10.77;;;5.88;;
35126;SDS011;21300;52.006;5.798;2023-04-27T06:34:54;10.00;;;5.70;;
35126;SDS011;21300;52.006;5.798;2023-04-27T06:37:20;10.57;;;5.18;;
35126;SDS011;21300;52.006;5.798;2023-04-27T06:39:46;14.05;;;5.75;;
35126;SDS011;21300;52.006;5.798;2023-04-27T06:42:12;12.90;;;5.97;;
35126;SDS011;21300;52.006;5.798;2023-04-27T06:44:37;9.15;;;5.90;;
35126;SDS011;21300;52.006;5.798;2023-04-27T06:47:03;11.80;;;5.65;;
35126;SDS011;21300;52.006;5.798;2023-04-27T06:49:29;13.88;;;6.20;;
35126;SDS011;21300;52.006;5.798;2023-04-27T06:51:55;12.98;;;5.20;;
35126;SDS011;21300;52.006;5.798;2023-04-27T06:54:21;10.30;;;5.60;;
35126;SDS011;21300;52.006;5.798;2023-04-27T06:56:46;9.23;;;5.30;;
35126;SDS011;21300;52.006;5.798;2023-04-27T06:59:12;12.20;;;4.50;;
35126;SDS011;21300;52.006;5.798;2023-04-27T07:01:38;7.65;;;4.60;;
35126;SDS011;21300;52.006;5.798;2023-04-27T07:04:04;10.65;;;4.22;;
35126;SDS011;21300;52.006;5.798;2023-04-27T07:09:14;10.52;;;4.10;;
35126;SDS011;21300;52.006;5.798;2023-04-27T07:11:40;9.07;;;4.35;;
35126;SDS011;21300;52.006;5.798;2023-04-27T07:14:06;9.80;;;4.35;;
35126;SDS011;21300;52.006;5.798;2023-04-27T07:16:31;6.32;;;3.50;;
35126;SDS011;21300;52.006;5.798;2023-04-27T07:18:57;6.47;;;2.85;;
35126;SDS011;21300;52.006;5.798;2023-04-27T07:21:22;6.72;;;3.15;;
35126;SDS011;21300;52.006;5.798;2023-04-27T07:23:48;5.65;;;2.50;;
35126;SDS011;21300;52.006;5.798;2023-04-27T07:26:13;6.47;;;3.08;;
35126;SDS011;21300;52.006;5.798;2023-04-27T07:28:39;9.38;;;3.38;;
35126;SDS011;21300;52.006;5.798;2023-04-27T07:31:05;7.60;;;3.70;;
35126;SDS011;21300;52.006;5.798;2023-04-27T07:33:32;8.40;;;3.28;;
35126;SDS011;21300;52.006;5.798;2023-04-27T07:35:58;6.15;;;3.22;;
35126;SDS011;21300;52.006;5.798;2023-04-27T07:38:23;7.13;;;3.28;;
35126;SDS011;21300;52.006;5.798;2023-04-27T07:40:49;8.82;;;3.03;;
35126;SDS011;21300;52.006;5.798;2023-04-27T07:43:16;7.43;;;3.15;;
35126;SDS011;21300;52.006;5.798;2023-04-27T07:45:42;7.05;;;3.08;;
35126;SDS011;21300;52.006;5.798;2023-04-27T07:48:08;6.18;;;3.20;;
35126;SDS011;21300;52.006;5.798;2023-04-27T07:50:33;5.90;;;4.18;;
35126;SDS011;21300;52.006;5.798;2023-04-27T07:52:59;8.02;;;3.78;;
35126;SDS011;21300;52.006;5.798;2023-04-27T07:55:25;5.10;;;2.25;;
35126;SDS011;21300;52.006;5.798;2023-04-27T07:57:55;6.93;;;2.70;;
35126;SDS011;21300;52.006;5.798;2023-04-27T08:00:21;9.73;;;3.20;;
35126;SDS011;21300;52.006;5.798;2023-04-27T08:02:49;3.70;;;2.47;;
35126;SDS011;21300;52.006;5.798;2023-04-27T08:05:16;7.10;;;2.40;;
35126;SDS011;21300;52.006;5.798;2023-04-27T08:07:42;5.82;;;2.75;;
35126;SDS011;21300;52.006;5.798;2023-04-27T08:10:07;5.22;;;3.22;;
35126;SDS011;21300;52.006;5.798;2023-04-27T08:12:33;5.43;;;2.97;;
35126;SDS011;21300;52.006;5.798;2023-04-27T08:14:59;6.82;;;2.60;;
35126;SDS011;21300;52.006;5.798;2023-04-27T08:17:24;7.53;;;3.17;;
35126;SDS011;21300;52.006;5.798;2023-04-27T08:19:50;4.85;;;2.78;;
35126;SDS011;21300;52.006;5.798;2023-04-27T08:22:16;5.85;;;3.25;;
35126;SDS011;21300;52.006;5.798;2023-04-27T08:24:42;7.13;;;2.30;;
35126;SDS011;21300;52.006;5.798;2023-04-27T08:27:07;8.90;;;2.45;;
35126;SDS011;21300;52.006;5.798;2023-04-27T08:29:33;4.68;;;2.50;;
35126;SDS011;21300;52.006;5.798;2023-04-27T08:32:00;5.05;;;3.08;;
35126;SDS011;21300;52.006;5.798;2023-04-27T08:34:26;4.22;;;3.08;;
35126;SDS011;21300;52.006;5.798;2023-04-27T08:36:52;6.78;;;2.95;;
35126;SDS011;21300;52.006;5.798;2023-04-27T08:39:18;7.07;;;3.33;;
35126;SDS011;21300;52.006;5.798;2023-04-27T08:41:44;4.28;;;2.10;;
35126;SDS011;21300;52.006;5.798;2023-04-27T08:44:10;9.38;;;3.30;;
35126;SDS011;21300;52.006;5.798;2023-04-27T08:46:36;4.97;;;2.60;;
35126;SDS011;21300;52.006;5.798;2023-04-27T08:49:02;5.95;;;3.08;;
35126;SDS011;21300;52.006;5.798;2023-04-27T08:51:28;6.15;;;3.08;;
35126;SDS011;21300;52.006;5.798;2023-04-27T08:53:54;5.25;;;2.70;;
35126;SDS011;21300;52.006;5.798;2023-04-27T08:56:22;4.25;;;2.92;;
35126;SDS011;21300;52.006;5.798;2023-04-27T08:58:52;6.85;;;3.33;;
35126;SDS011;21300;52.006;5.798;2023-04-27T09:01:18;9.43;;;3.17;;
35126;SDS011;21300;52.006;5.798;2023-04-27T09:03:45;5.13;;;2.63;;
35126;SDS011;21300;52.006;5.798;2023-04-27T09:06:11;6.97;;;3.05;;
35126;SDS011;21300;52.006;5.798;2023-04-27T09:08:44;4.82;;;3.00;;
35126;SDS011;21300;52.006;5.798;2023-04-27T09:11:14;6.10;;;3.13;;
35126;SDS011;21300;52.006;5.798;2023-04-27T09:14:01;4.40;;;2.63;;
35126;SDS011;21300;52.006;5.798;2023-04-27T09:16:38;5.07;;;2.60;;
35126;SDS011;21300;52.006;5.798;2023-04-27T09:19:04;6.07;;;2.78;;
35126;SDS011;21300;52.006;5.798;2023-04-27T09:21:29;6.90;;;3.40;;
35126;SDS011;21300;52.006;5.798;2023-04-27T09:23:56;8.20;;;2.53;;
35126;SDS011;21300;52.006;5.798;2023-04-27T09:26:23;5.65;;;3.08;;
35126;SDS011;21300;52.006;5.798;2023-04-27T09:28:51;6.90;;;3.53;;
35126;SDS011;21300;52.006;5.798;2023-04-27T09:31:18;4.78;;;3.35;;
35126;SDS011;21300;52.006;5.798;2023-04-27T09:33:44;7.15;;;3.42;;
35126;SDS011;21300;52.006;5.798;2023-04-27T09:36:11;7.07;;;4.03;;
35126;SDS011;21300;52.006;5.798;2023-04-27T09:38:37;7.75;;;3.60;;
35126;SDS011;21300;52.006;5.798;2023-04-27T09:41:03;5.28;;;3.13;;
35126;SDS011;21300;52.006;5.798;2023-04-27T09:43:29;6.05;;;3.63;;
35126;SDS011;21300;52.006;5.798;2023-04-27T09:45:56;7.60;;;3.97;;
35126;SDS011;21300;52.006;5.798;2023-04-27T09:48:22;6.10;;;3.60;;
35126;SDS011;21300;52.006;5.798;2023-04-27T09:50:49;9.23;;;3.95;;
35126;SDS011;21300;52.006;5.798;2023-04-27T09:53:19;8.32;;;3.45;;
35126;SDS011;21300;52.006;5.798;2023-04-27T10:01:35;8.65;;;3.70;;
35126;SDS011;21300;52.006;5.798;2023-04-27T10:04:15;6.22;;;3.45;;
35126;SDS011;21300;52.006;5.798;2023-04-27T10:06:50;4.85;;;3.30;;
35126;SDS011;21300;52.006;5.798;2023-04-27T10:11:47;8.10;;;4.22;;
35126;SDS011;21300;52.006;5.798;2023-04-27T10:14:15;7.25;;;4.18;;
35126;SDS011;21300;52.006;5.798;2023-04-27T10:16:48;6.22;;;3.63;;
35126;SDS011;21300;52.006;5.798;2023-04-27T10:19:17;7.40;;;4.28;;
35126;SDS011;21300;52.006;5.798;2023-04-27T10:21:50;4.50;;;2.60;;
35126;SDS011;21300;52.006;5.798;2023-04-27T10:24:15;5.68;;;3.10;;
35126;SDS011;21300;52.006;5.798;2023-04-27T10:26:45;7.25;;;3.47;;
35126;SDS011;21300;52.006;5.798;2023-04-27T10:29:11;5.65;;;4.00;;
35126;SDS011;21300;52.006;5.798;2023-04-27T10:31:43;6.45;;;4.03;;
35126;SDS011;21300;52.006;5.798;2023-04-27T10:34:16;6.68;;;4.30;;
35126;SDS011;21300;52.006;5.798;2023-04-27T10:36:42;7.75;;;3.70;;
35126;SDS011;21300;52.006;5.798;2023-04-27T10:41:54;4.97;;;3.60;;
35126;SDS011;21300;52.006;5.798;2023-04-27T10:46:53;6.25;;;3.70;;
35126;SDS011;21300;52.006;5.798;2023-04-27T10:49:20;7.65;;;3.65;;
35126;SDS011;21300;52.006;5.798;2023-04-27T10:51:47;5.05;;;3.65;;
35126;SDS011;21300;52.006;5.798;2023-04-27T10:54:16;6.28;;;4.32;;
35126;SDS011;21300;52.006;5.798;2023-04-27T10:56:43;7.90;;;4.35;;
35126;SDS011;21300;52.006;5.798;2023-04-27T10:59:08;5.28;;;3.53;;
35126;SDS011;21300;52.006;5.798;2023-04-27T11:01:35;11.05;;;5.30;;
35126;SDS011;21300;52.006;5.798;2023-04-27T11:04:01;6.97;;;5.00;;
35126;SDS011;21300;52.006;5.798;2023-04-27T11:06:28;9.73;;;4.32;;
35126;SDS011;21300;52.006;5.798;2023-04-27T11:08:54;5.18;;;3.58;;
35126;SDS011;21300;52.006;5.798;2023-04-27T11:11:20;6.00;;;4.38;;
35126;SDS011;21300;52.006;5.798;2023-04-27T11:13:47;6.57;;;4.10;;
35126;SDS011;21300;52.006;5.798;2023-04-27T11:16:13;7.70;;;4.90;;
35126;SDS011;21300;52.006;5.798;2023-04-27T11:18:40;5.85;;;4.03;;
35126;SDS011;21300;52.006;5.798;2023-04-27T11:21:16;6.43;;;3.75;;
35126;SDS011;21300;52.006;5.798;2023-04-27T11:23:44;7.07;;;4.20;;
35126;SDS011;21300;52.006;5.798;2023-04-27T11:28:40;6.88;;;4.75;;
35126;SDS011;21300;52.006;5.798;2023-04-27T11:31:21;6.22;;;3.90;;
35126;SDS011;21300;52.006;5.798;2023-04-27T11:33:50;4.90;;;3.90;;
35126;SDS011;21300;52.006;5.798;2023-04-27T11:36:18;6.47;;;4.53;;
35126;SDS011;21300;52.006;5.798;2023-04-27T11:38:46;7.53;;;4.38;;
35126;SDS011;21300;52.006;5.798;2023-04-27T11:41:11;8.77;;;4.53;;
35126;SDS011;21300;52.006;5.798;2023-04-27T11:43:40;5.88;;;3.80;;
35126;SDS011;21300;52.006;5.798;2023-04-27T11:46:10;7.72;;;4.07;;
35126;SDS011;21300;52.006;5.798;2023-04-27T11:48:38;9.00;;;4.50;;
35126;SDS011;21300;52.006;5.798;2023-04-27T11:51:04;8.48;;;4.80;;
35126;SDS011;21300;52.006;5.798;2023-04-27T11:53:32;9.63;;;4.50;;
35126;SDS011;21300;52.006;5.798;2023-04-27T11:55:59;7.55;;;4.63;;
35126;SDS011;21300;52.006;5.798;2023-04-27T11:58:27;6.70;;;4.38;;
35126;SDS011;21300;52.006;5.798;2023-04-27T12:00:56;9.43;;;4.20;;
35126;SDS011;21300;52.006;5.798;2023-04-27T12:03:22;9.25;;;5.03;;
35126;SDS011;21300;52.006;5.798;2023-04-27T12:05:48;6.18;;;4.60;;
35126;SDS011;21300;52.006;5.798;2023-04-27T12:08:15;6.50;;;4.45;;
35126;SDS011;21300;52.006;5.798;2023-04-27T12:10:41;7.78;;;5.10;;
35126;SDS011;21300;52.006;5.798;2023-04-27T12:13:06;9.07;;;4.47;;
35126;SDS011;21300;52.006;5.798;2023-04-27T12:15:32;8.10;;;4.20;;
35126;SDS011;21300;52.006;5.798;2023-04-27T12:17:58;7.60;;;4.70;;
35126;SDS011;21300;52.006;5.798;2023-04-27T12:20:23;6.13;;;4.28;;
35126;SDS011;21300;52.006;5.798;2023-04-27T12:22:49;6.97;;;4.25;;
35126;SDS011;21300;52.006;5.798;2023-04-27T12:25:15;7.60;;;4.55;;
35126;SDS011;21300;52.006;5.798;2023-04-27T12:27:42;7.90;;;4.05;;
35126;SDS011;21300;52.006;5.798;2023-04-27T12:30:11;7.78;;;4.43;;
35126;SDS011;21300;52.006;5.798;2023-04-27T12:32:37;7.53;;;3.80;;
35126;SDS011;21300;52.006;5.798;2023-04-27T12:35:03;6.50;;;4.72;;
35126;SDS011;21300;52.006;5.798;2023-04-27T12:37:30;9.13;;;4.65;;
35126;SDS011;21300;52.006;5.798;2023-04-27T12:39:55;6.38;;;4.15;;
35126;SDS011;21300;52.006;5.798;2023-04-27T12:42:22;5.90;;;4.25;;
35126;SDS011;21300;52.006;5.798;2023-04-27T12:44:51;7.45;;;4.57;;
35126;SDS011;21300;52.006;5.798;2023-04-27T12:47:18;6.15;;;4.43;;
35126;SDS011;21300;52.006;5.798;2023-04-27T12:49:45;9.95;;;5.00;;
35126;SDS011;21300;52.006;5.798;2023-04-27T12:52:11;4.65;;;4.03;;
35126;SDS011;21300;52.006;5.798;2023-04-27T12:54:37;8.00;;;4.25;;
35126;SDS011;21300;52.006;5.798;2023-04-27T12:57:03;6.35;;;3.85;;
35126;SDS011;21300;52.006;5.798;2023-04-27T12:59:33;8.13;;;4.82;;
35126;SDS011;21300;52.006;5.798;2023-04-27T13:02:00;5.97;;;4.18;;
35126;SDS011;21300;52.006;5.798;2023-04-27T13:04:27;6.78;;;3.72;;
35126;SDS011;21300;52.006;5.798;2023-04-27T13:06:54;9.82;;;4.13;;
35126;SDS011;21300;52.006;5.798;2023-04-27T13:09:20;4.07;;;3.47;;
35126;SDS011;21300;52.006;5.798;2023-04-27T13:11:46;5.63;;;3.88;;
35126;SDS011;21300;52.006;5.798;2023-04-27T13:14:12;5.60;;;3.90;;
35126;SDS011;21300;52.006;5.798;2023-04-27T13:16:40;5.18;;;3.50;;
35126;SDS011;21300;52.006;5.798;2023-04-27T13:19:06;5.57;;;3.58;;
35126;SDS011;21300;52.006;5.798;2023-04-27T13:21:32;4.97;;;3.35;;
35126;SDS011;21300;52.006;5.798;2023-04-27T13:23:58;6.68;;;4.13;;
35126;SDS011;21300;52.006;5.798;2023-04-27T13:26:23;5.18;;;3.80;;
35126;SDS011;21300;52.006;5.798;2023-04-27T13:28:49;4.85;;;3.40;;
35126;SDS011;21300;52.006;5.798;2023-04-27T13:31:14;7.63;;;3.83;;
35126;SDS011;21300;52.006;5.798;2023-04-27T13:33:41;6.13;;;3.38;;
35126;SDS011;21300;52.006;5.798;2023-04-27T13:36:08;5.35;;;3.47;;
35126;SDS011;21300;52.006;5.798;2023-04-27T13:38:34;4.43;;;2.80;;
35126;SDS011;21300;52.006;5.798;2023-04-27T13:41:00;6.57;;;3.28;;
35126;SDS011;21300;52.006;5.798;2023-04-27T13:43:26;5.18;;;2.90;;
35126;SDS011;21300;52.006;5.798;2023-04-27T13:45:52;4.55;;;3.50;;
35126;SDS011;21300;52.006;5.798;2023-04-27T13:48:19;5.07;;;3.22;;
35126;SDS011;21300;52.006;5.798;2023-04-27T13:50:45;6.43;;;3.80;;
35126;SDS011;21300;52.006;5.798;2023-04-27T13:53:11;4.85;;;3.50;;
35126;SDS011;21300;52.006;5.798;2023-04-27T13:55:37;5.22;;;3.35;;
35126;SDS011;21300;52.006;5.798;2023-04-27T13:58:03;5.82;;;3.70;;
35126;SDS011;21300;52.006;5.798;2023-04-27T14:00:29;5.63;;;3.67;;
35126;SDS011;21300;52.006;5.798;2023-04-27T14:02:57;6.50;;;3.30;;
35126;SDS011;21300;52.006;5.798;2023-04-27T14:05:24;6.57;;;3.50;;
35126;SDS011;21300;52.006;5.798;2023-04-27T14:07:50;3.97;;;2.72;;
35126;SDS011;21300;52.006;5.798;2023-04-27T14:10:15;4.32;;;3.08;;
35126;SDS011;21300;52.006;5.798;2023-04-27T14:12:41;4.18;;;2.78;;
35126;SDS011;21300;52.006;5.798;2023-04-27T14:15:07;6.57;;;3.20;;
35126;SDS011;21300;52.006;5.798;2023-04-27T14:17:33;5.60;;;3.40;;
35126;SDS011;21300;52.006;5.798;2023-04-27T14:19:59;4.78;;;3.40;;
35126;SDS011;21300;52.006;5.798;2023-04-27T14:22:25;7.57;;;3.97;;
35126;SDS011;21300;52.006;5.798;2023-04-27T14:24:50;5.93;;;3.63;;
35126;SDS011;21300;52.006;5.798;2023-04-27T14:27:16;4.57;;;3.28;;
35126;SDS011;21300;52.006;5.798;2023-04-27T14:29:42;3.75;;;3.28;;
35126;SDS011;21300;52.006;5.798;2023-04-27T14:32:07;5.65;;;3.70;;
35126;SDS011;21300;52.006;5.798;2023-04-27T14:34:33;7.13;;;3.70;;
35126;SDS011;21300;52.006;5.798;2023-04-27T14:36:59;7.15;;;3.70;;
35126;SDS011;21300;52.006;5.798;2023-04-27T14:39:24;6.18;;;3.53;;
35126;SDS011;21300;52.006;5.798;2023-04-27T14:41:52;6.07;;;3.53;;
35126;SDS011;21300;52.006;5.798;2023-04-27T14:44:17;3.85;;;3.28;;
35126;SDS011;21300;52.006;5.798;2023-04-27T14:46:43;6.75;;;3.10;;
35126;SDS011;21300;52.006;5.798;2023-04-27T14:49:09;8.13;;;3.28;;
35126;SDS011;21300;52.006;5.798;2023-04-27T14:51:34;5.63;;;3.67;;
35126;SDS011;21300;52.006;5.798;2023-04-27T14:54:00;4.82;;;3.53;;
35126;SDS011;21300;52.006;5.798;2023-04-27T14:56:27;4.90;;;3.08;;
35126;SDS011;21300;52.006;5.798;2023-04-27T14:58:53;4.57;;;3.45;;
35126;SDS011;21300;52.006;5.798;2023-04-27T15:01:19;5.10;;;3.55;;